Time;durP1;ratioP1;P1;durP2;ratioP2;P2;SDS_P1;SDS_P2;PMS_P1;PMS_P2;Temp;Humidity;BMP_temperature;BMP_pressure;BME280_temperature;BME280_humidity;BME280_pressure;Samples;Min_cycle;Max_cycle;Signal;HPM_P1;HPM_P2
2021/04/04 00:02:15;;;;;;;;;10.50;8.50;;;;;;;;5005678;28;11472;-82
2021/04/04 00:04:42;;;;;;;;;17.75;17.75;;;;;;;;5022797;28;11630;-81
2021/04/04 00:07:09;;;;;;;;;11.50;9.25;;;;;;;;5023938;28;12265;-81
2021/04/04 00:09:36;;;;;;;;;10.25;10.25;;;;;;;;5023100;28;11524;-81
2021/04/04 00:12:04;;;;;;;;;16.50;11.50;;;;;;;;5023920;28;11560;-81
2021/04/04 00:14:31;;;;;;;;;16.75;11.25;;;;;;;;5022789;28;11538;-80
2021/04/04 00:16:58;;;;;;;;;17.00;11.25;;;;;;;;5023285;28;11520;-80
2021/04/04 00:19:26;;;;;;;;;11.25;10.75;;;;;;;;5014936;28;11614;-80
2021/04/04 00:21:53;;;;;;;;;14.50;12.00;;;;;;;;5023927;28;11556;-81
2021/04/04 00:24:20;;;;;;;;;10.75;10.75;;;;;;;;5024478;28;11558;-81
2021/04/04 00:26:47;;;;;;;;;12.75;11.75;;;;;;;;5018845;28;11685;-82
2021/04/04 00:29:14;;;;;;;;;24.75;19.50;;;;;;;;5023875;28;11558;-80
2021/04/04 00:31:41;;;;;;;;;17.25;8.75;;;;;;;;5020594;28;11539;-80
2021/04/04 00:34:08;;;;;;;;;15.25;11.75;;;;;;;;5004748;28;11541;-81
2021/04/04 00:36:36;;;;;;;;;11.75;11.75;;;;;;;;5023549;28;11542;-81
2021/04/04 00:39:07;;;;;;;;;14.75;12.25;;;;;;;;5023401;28;11677;-81
2021/04/04 00:41:34;;;;;;;;;12.50;12.50;;;;;;;;5031318;28;11580;-82
2021/04/04 00:44:01;;;;;;;;;16.50;14.00;;;;;;;;5022771;28;11555;-79
2021/04/04 00:46:28;;;;;;;;;13.50;11.00;;;;;;;;5022753;28;11528;-81
2021/04/04 00:48:55;;;;;;;;;18.00;13.75;;;;;;;;5022109;28;11581;-83
2021/04/04 00:51:22;;;;;;;;;13.75;11.50;;;;;;;;5026103;28;11648;-81
2021/04/04 00:53:51;;;;;;;;;20.75;18.00;;;;;;;;5022517;28;11550;-81
2021/04/04 00:56:18;;;;;;;;;21.67;20.67;;;;;;;;5022442;28;11579;-81
2021/04/04 00:58:45;;;;;;;;;22.25;18.00;;;;;;;;5023644;28;12315;-82
2021/04/04 01:01:12;;;;;;;;;18.50;17.00;;;;;;;;5021333;28;11626;-81
2021/04/04 01:03:40;;;;;;;;;16.75;14.75;;;;;;;;5031678;28;12342;-81
2021/04/04 01:06:08;;;;;;;;;15.75;14.00;;;;;;;;5003298;28;12387;-80
2021/04/04 01:08:35;;;;;;;;;21.75;12.00;;;;;;;;5023119;28;11638;-83
2021/04/04 01:11:04;;;;;;;;;42.00;40.33;;;;;;;;5021146;28;11697;-84
2021/04/04 01:13:35;;;;;;;;;73.67;58.67;;;;;;;;5022184;28;8860;-82
2021/04/04 01:16:04;;;;;;;;;47.33;39.00;;;;;;;;5021320;28;8872;-81
2021/04/04 01:18:35;;;;;;;;;22.00;19.00;;;;;;;;5003143;28;9846;-84
2021/04/04 01:21:04;;;;;;;;;24.67;19.00;;;;;;;;5022968;28;11567;-82
2021/04/04 01:23:50;;;;;;;;;20.75;14.25;;;;;;;;5029086;28;11546;-81
2021/04/04 01:26:32;;;;;;;;;16.75;15.75;;;;;;;;5015559;28;11555;-80
2021/04/04 01:29:01;;;;;;;;;16.25;11.75;;;;;;;;5019324;28;11592;-81
2021/04/04 01:31:28;;;;;;;;;20.75;15.25;;;;;;;;5019597;28;11558;-80
2021/04/04 01:33:57;;;;;;;;;12.75;12.25;;;;;;;;5022724;28;11620;-81
2021/04/04 01:36:24;;;;;;;;;14.25;11.50;;;;;;;;5020798;28;11562;-81
2021/04/04 01:38:53;;;;;;;;;16.75;13.75;;;;;;;;5023441;28;11605;-80
2021/04/04 01:41:23;;;;;;;;;17.50;12.50;;;;;;;;5021645;28;11528;-80
2021/04/04 01:43:52;;;;;;;;;17.50;11.50;;;;;;;;5022390;28;11559;-81
2021/04/04 01:46:21;;;;;;;;;17.25;14.50;;;;;;;;5030783;28;11645;-81
2021/04/04 01:48:49;;;;;;;;;14.25;14.25;;;;;;;;4987782;28;11577;-80
2021/04/04 01:51:16;;;;;;;;;11.75;11.00;;;;;;;;5021877;28;11541;-79
2021/04/04 01:53:44;;;;;;;;;14.50;11.75;;;;;;;;5021291;28;11564;-81
2021/04/04 01:56:11;;;;;;;;;19.00;11.00;;;;;;;;5022824;28;11557;-83
2021/04/04 01:58:39;;;;;;;;;13.25;12.00;;;;;;;;5021354;28;11541;-86
2021/04/04 02:01:07;;;;;;;;;12.50;8.00;;;;;;;;5021918;28;11518;-84
2021/04/04 02:03:35;;;;;;;;;12.00;12.00;;;;;;;;5021554;28;11679;-83
2021/04/04 02:06:04;;;;;;;;;19.33;17.33;;;;;;;;5021425;28;11573;-82
2021/04/04 02:08:31;;;;;;;;;18.00;13.50;;;;;;;;5013191;28;11587;-85
2021/04/04 02:11:00;;;;;;;;;17.75;15.00;;;;;;;;5021529;28;11586;-86
2021/04/04 02:13:28;;;;;;;;;17.67;14.00;;;;;;;;5021710;28;11574;-84
2021/04/04 02:15:57;;;;;;;;;19.00;18.00;;;;;;;;5020497;28;11574;-85
2021/04/04 02:18:24;;;;;;;;;25.00;19.25;;;;;;;;5023106;28;11545;-85
2021/04/04 02:20:54;;;;;;;;;18.00;16.25;;;;;;;;5022110;28;11569;-82
2021/04/04 02:23:24;;;;;;;;;18.75;15.50;;;;;;;;5020993;28;12371;-85
2021/04/04 02:25:53;;;;;;;;;16.25;14.00;;;;;;;;5023263;28;11546;-86
2021/04/04 02:28:21;;;;;;;;;21.00;17.25;;;;;;;;5025590;28;11592;-80
2021/04/04 02:30:48;;;;;;;;;12.50;11.50;;;;;;;;5029509;28;11512;-82
2021/04/04 02:33:20;;;;;;;;;18.25;14.00;;;;;;;;5029113;28;11566;-87
2021/04/04 02:35:53;;;;;;;;;20.75;14.50;;;;;;;;5022615;28;11573;-82
2021/04/04 02:38:26;;;;;;;;;15.75;14.75;;;;;;;;5022415;28;11563;-82
2021/04/04 02:40:54;;;;;;;;;16.75;12.25;;;;;;;;5002947;28;11543;-82
2021/04/04 02:43:26;;;;;;;;;15.50;14.75;;;;;;;;5027985;28;11524;-81
2021/04/04 02:45:54;;;;;;;;;14.00;12.00;;;;;;;;5020089;28;11550;-82
2021/04/04 02:48:28;;;;;;;;;18.00;18.00;;;;;;;;5021838;28;11595;-81
2021/04/04 02:50:59;;;;;;;;;15.67;12.00;;;;;;;;5030088;28;11677;-80
2021/04/04 02:53:27;;;;;;;;;18.00;15.67;;;;;;;;5000375;28;12337;-81
2021/04/04 02:55:56;;;;;;;;;18.00;17.67;;;;;;;;5003151;28;11555;-81
2021/04/04 02:58:24;;;;;;;;;22.33;18.00;;;;;;;;5019380;28;11531;-81
2021/04/04 03:00:55;;;;;;;;;22.00;18.33;;;;;;;;5020392;28;11539;-81
2021/04/04 03:03:22;;;;;;;;;22.67;16.00;;;;;;;;5015444;28;11761;-80
2021/04/04 03:05:49;;;;;;;;;18.33;15.00;;;;;;;;5004190;28;11576;-81
2021/04/04 03:08:17;;;;;;;;;19.33;14.33;;;;;;;;5020016;28;12065;-80
2021/04/04 03:10:50;;;;;;;;;18.50;15.50;;;;;;;;5020111;28;11541;-80
2021/04/04 03:13:18;;;;;;;;;12.75;12.00;;;;;;;;5006370;28;11626;-82
2021/04/04 03:15:45;;;;;;;;;12.00;12.00;;;;;;;;5018989;28;11537;-82
2021/04/04 03:18:12;;;;;;;;;24.33;16.00;;;;;;;;5019729;28;11552;-81
2021/04/04 03:20:39;;;;;;;;;15.67;14.67;;;;;;;;5019455;28;12383;-81
2021/04/04 03:23:06;;;;;;;;;20.00;15.00;;;;;;;;5020545;28;11564;-82
2021/04/04 03:25:34;;;;;;;;;19.00;18.67;;;;;;;;5019761;28;11559;-82
2021/04/04 03:28:02;;;;;;;;;22.00;16.33;;;;;;;;5013559;28;11616;-80
2021/04/04 03:30:35;;;;;;;;;17.67;14.00;;;;;;;;5019122;28;11486;-80
2021/04/04 03:33:04;;;;;;;;;15.67;13.33;;;;;;;;5019595;28;11548;-80
2021/04/04 03:35:33;;;;;;;;;20.33;18.67;;;;;;;;5027889;28;11704;-80
2021/04/04 03:38:03;;;;;;;;;25.67;21.33;;;;;;;;5020183;28;11609;-81
2021/04/04 03:40:30;;;;;;;;;16.33;13.33;;;;;;;;5002382;28;11694;-81
2021/04/04 03:43:00;;;;;;;;;19.00;17.00;;;;;;;;5018391;28;11545;-81
2021/04/04 03:45:27;;;;;;;;;25.00;18.00;;;;;;;;5019483;28;11577;-81
2021/04/04 03:47:55;;;;;;;;;18.33;16.33;;;;;;;;5016575;28;11558;-82
2021/04/04 03:50:22;;;;;;;;;24.00;16.67;;;;;;;;5019030;28;11618;-82
2021/04/04 03:52:51;;;;;;;;;18.67;17.33;;;;;;;;5020001;28;11679;-81
2021/04/04 03:55:21;;;;;;;;;14.33;13.33;;;;;;;;5025995;28;11572;-83
2021/04/04 03:57:49;;;;;;;;;18.67;16.33;;;;;;;;5021370;28;13945;-81
2021/04/04 04:00:19;;;;;;;;;19.33;17.67;;;;;;;;5019019;28;9722;-82
2021/04/04 04:02:47;;;;;;;;;23.67;17.67;;;;;;;;5001531;28;11779;-82
2021/04/04 04:05:17;;;;;;;;;18.00;16.00;;;;;;;;5020368;28;11568;-82
2021/04/04 04:07:45;;;;;;;;;17.33;14.00;;;;;;;;5018548;28;11552;-81
2021/04/04 04:10:13;;;;;;;;;20.00;15.00;;;;;;;;5002940;28;11533;-82
2021/04/04 04:12:41;;;;;;;;;23.00;15.67;;;;;;;;5018717;28;8929;-80
2021/04/04 04:15:09;;;;;;;;;20.33;19.33;;;;;;;;5007383;28;11663;-81
2021/04/04 04:17:37;;;;;;;;;23.67;16.33;;;;;;;;5026803;28;11690;-81
2021/04/04 04:20:06;;;;;;;;;21.33;21.33;;;;;;;;5021498;28;9026;-82
2021/04/04 04:22:33;;;;;;;;;19.67;17.33;;;;;;;;5019904;28;8885;-82
2021/04/04 04:25:01;;;;;;;;;22.33;20.67;;;;;;;;5019205;28;8868;-81
2021/04/04 04:27:28;;;;;;;;;16.67;15.67;;;;;;;;5018647;28;9390;-82
2021/04/04 04:29:56;;;;;;;;;21.00;18.00;;;;;;;;5009409;28;9608;-82
2021/04/04 04:32:26;;;;;;;;;18.00;15.33;;;;;;;;5005196;28;8843;-82
2021/04/04 04:34:55;;;;;;;;;20.33;15.33;;;;;;;;5014013;28;8903;-83
2021/04/04 04:37:25;;;;;;;;;20.67;15.33;;;;;;;;5023440;28;8877;-81
2021/04/04 04:39:52;;;;;;;;;15.67;13.67;;;;;;;;5028422;28;8861;-82
2021/04/04 04:42:19;;;;;;;;;24.00;17.67;;;;;;;;5001140;28;9012;-83
2021/04/04 04:44:47;;;;;;;;;15.33;11.00;;;;;;;;5020342;28;9845;-84
2021/04/04 04:47:15;;;;;;;;;21.67;20.00;;;;;;;;5024655;28;11596;-81
2021/04/04 04:49:44;;;;;;;;;19.00;17.00;;;;;;;;5031272;28;8888;-83
2021/04/04 04:52:13;;;;;;;;;19.33;19.33;;;;;;;;5022696;28;8883;-83
2021/04/04 04:54:42;;;;;;;;;24.00;18.00;;;;;;;;5024155;28;8900;-84
2021/04/04 04:57:10;;;;;;;;;30.33;20.00;;;;;;;;5022904;28;8840;-83
2021/04/04 04:59:38;;;;;;;;;25.00;24.67;;;;;;;;5030386;28;8944;-80
2021/04/04 05:02:07;;;;;;;;;17.00;17.00;;;;;;;;5023041;28;8806;-79
2021/04/04 05:04:34;;;;;;;;;18.00;15.33;;;;;;;;5008354;28;9632;-80
2021/04/04 05:07:02;;;;;;;;;20.00;18.67;;;;;;;;5023498;28;8852;-80
2021/04/04 05:09:33;;;;;;;;;19.67;15.00;;;;;;;;5022158;28;8852;-81
2021/04/04 05:12:01;;;;;;;;;24.33;20.00;;;;;;;;5022840;28;8865;-82
2021/04/04 05:14:28;;;;;;;;;19.33;17.33;;;;;;;;5021805;28;8874;-82
2021/04/04 05:16:55;;;;;;;;;24.00;16.33;;;;;;;;5022625;28;8883;-81
2021/04/04 05:19:22;;;;;;;;;21.67;21.67;;;;;;;;5005752;28;8869;-80
2021/04/04 05:21:50;;;;;;;;;16.67;16.67;;;;;;;;5028235;28;8888;-83
2021/04/04 05:24:17;;;;;;;;;13.33;13.00;;;;;;;;5023518;28;8869;-81
2021/04/04 05:26:47;;;;;;;;;13.00;13.00;;;;;;;;5022184;28;8904;-80
2021/04/04 05:29:16;;;;;;;;;19.00;17.00;;;;;;;;5020998;28;8895;-81
2021/04/04 05:31:47;;;;;;;;;16.33;13.00;;;;;;;;5020974;28;8809;-82
2021/04/04 05:34:14;;;;;;;;;15.00;14.00;;;;;;;;5014071;28;8991;-82
2021/04/04 05:36:51;;;;;;;;;21.67;14.67;;;;;;;;5022005;28;8924;-83
2021/04/04 05:39:19;;;;;;;;;14.00;13.00;;;;;;;;5021336;28;9748;-81
2021/04/04 05:41:51;;;;;;;;;16.00;16.00;;;;;;;;5022688;28;8860;-83
2021/04/04 05:44:21;;;;;;;;;20.33;17.33;;;;;;;;5012087;28;8913;-80
2021/04/04 05:46:55;;;;;;;;;22.00;17.00;;;;;;;;5003281;28;8878;-80
2021/04/04 05:49:36;;;;;;;;;35.00;29.00;;;;;;;;5017978;28;8876;-80
2021/04/04 05:52:06;;;;;;;;;19.00;17.67;;;;;;;;4997009;28;8896;-78
2021/04/04 05:54:56;;;;;;;;;34.00;29.33;;;;;;;;5002805;28;8905;-79
2021/04/04 05:57:29;;;;;;;;;29.33;26.67;;;;;;;;5007036;28;8859;-81
2021/04/04 05:59:59;;;;;;;;;33.00;29.67;;;;;;;;5001930;28;8878;-82
2021/04/04 06:02:56;;;;;;;;;30.33;26.33;;;;;;;;5001426;28;8815;-84
2021/04/04 06:05:57;;;;;;;;;28.67;28.67;;;;;;;;5006756;28;8902;-81
2021/04/04 06:08:55;;;;;;;;;42.00;36.67;;;;;;;;5002973;28;9791;-82
2021/04/04 06:11:30;;;;;;;;;37.00;30.00;;;;;;;;5002150;28;8984;-81
2021/04/04 06:14:01;;;;;;;;;45.67;43.33;;;;;;;;5002041;28;8891;-83
2021/04/04 06:16:36;;;;;;;;;35.67;32.00;;;;;;;;5001866;28;8878;-81
2021/04/04 06:19:21;;;;;;;;;29.33;23.00;;;;;;;;5000757;28;8964;-80
2021/04/04 06:22:01;;;;;;;;;30.00;23.00;;;;;;;;5000321;28;8966;-81
2021/04/04 06:24:35;;;;;;;;;23.00;23.00;;;;;;;;5001684;28;8866;-80
2021/04/04 06:27:12;;;;;;;;;20.00;20.00;;;;;;;;4998728;28;9030;-81
2021/04/04 06:29:54;;;;;;;;;21.67;18.67;;;;;;;;5002719;28;8886;-80
2021/04/04 06:32:25;;;;;;;;;20.67;20.67;;;;;;;;4999901;28;8842;-81
2021/04/04 06:34:54;;;;;;;;;24.67;23.67;;;;;;;;4998990;28;8904;-78
2021/04/04 06:37:34;;;;;;;;;26.67;22.33;;;;;;;;5002776;28;8862;-80
2021/04/04 06:40:04;;;;;;;;;36.33;27.00;;;;;;;;5000022;28;9621;-81
2021/04/04 06:42:51;;;;;;;;;28.33;24.33;;;;;;;;5004021;28;9024;-81
2021/04/04 06:45:26;;;;;;;;;24.33;20.33;;;;;;;;5019596;28;8874;-78
2021/04/04 06:48:06;;;;;;;;;23.00;18.33;;;;;;;;5028608;28;11614;-80
2021/04/04 06:50:37;;;;;;;;;20.33;20.33;;;;;;;;5031003;28;11613;-84
2021/04/04 06:53:19;;;;;;;;;24.67;21.33;;;;;;;;5019035;28;11698;-71
2021/04/04 06:55:55;;;;;;;;;17.00;17.00;;;;;;;;5019209;28;11597;-70
2021/04/04 06:58:43;;;;;;;;;17.33;16.33;;;;;;;;5015153;28;11669;-71
2021/04/04 07:01:24;;;;;;;;;22.75;18.25;;;;;;;;5019198;28;11569;-72
2021/04/04 07:04:02;;;;;;;;;23.50;18.00;;;;;;;;5015606;28;11573;-73
2021/04/04 07:07:04;;;;;;;;;14.00;14.00;;;;;;;;5012845;28;11731;-72
2021/04/04 07:09:53;;;;;;;;;19.50;18.50;;;;;;;;5026011;28;11596;-71
2021/04/04 07:12:31;;;;;;;;;23.50;16.50;;;;;;;;5016456;28;11572;-72
2021/04/04 07:15:10;;;;;;;;;25.75;22.75;;;;;;;;5016823;28;11544;-73
2021/04/04 07:18:14;;;;;;;;;23.00;18.25;;;;;;;;5000206;28;11571;-73
2021/04/04 07:21:07;;;;;;;;;18.00;15.50;;;;;;;;4996241;28;11580;-73
2021/04/04 07:23:51;;;;;;;;;30.50;26.00;;;;;;;;5016750;28;11586;-73
2021/04/04 07:26:52;;;;;;;;;17.00;15.75;;;;;;;;5024299;28;11583;-73
2021/04/04 07:29:30;;;;;;;;;23.00;18.25;;;;;;;;5015400;28;13476;-73
2021/04/04 07:32:04;;;;;;;;;26.00;20.25;;;;;;;;5018513;28;11560;-71
2021/04/04 07:34:44;;;;;;;;;25.50;22.75;;;;;;;;5019013;28;12228;-72
2021/04/04 07:37:27;;;;;;;;;20.50;20.50;;;;;;;;5017216;28;11597;-72
2021/04/04 07:40:03;;;;;;;;;19.50;17.00;;;;;;;;5016355;28;11601;-73
2021/04/04 07:42:36;;;;;;;;;20.25;17.50;;;;;;;;5009855;28;12685;-73
2021/04/04 07:45:10;;;;;;;;;23.75;20.50;;;;;;;;5015202;28;11707;-73
2021/04/04 07:47:45;;;;;;;;;21.00;19.75;;;;;;;;5016914;28;11689;-72
2021/04/04 07:50:16;;;;;;;;;21.75;20.50;;;;;;;;5015804;28;11628;-74
2021/04/04 07:52:49;;;;;;;;;21.75;20.25;;;;;;;;5014663;28;11619;-73
2021/04/04 07:55:18;;;;;;;;;26.50;24.75;;;;;;;;5019371;28;12375;-73
2021/04/04 07:57:52;;;;;;;;;18.50;17.00;;;;;;;;5015835;28;11682;-73
2021/04/04 08:00:20;;;;;;;;;23.50;21.00;;;;;;;;5015824;28;11638;-74
2021/04/04 08:02:50;;;;;;;;;29.25;26.00;;;;;;;;5015426;28;11566;-73
2021/04/04 08:05:23;;;;;;;;;24.75;20.75;;;;;;;;5016402;28;11574;-72
2021/04/04 08:07:55;;;;;;;;;18.25;16.00;;;;;;;;5016139;28;11633;-72
2021/04/04 08:10:28;;;;;;;;;30.00;22.00;;;;;;;;5019565;28;11577;-73
2021/04/04 08:13:01;;;;;;;;;27.75;24.75;;;;;;;;4997984;28;12368;-71
2021/04/04 08:15:31;;;;;;;;;28.50;25.00;;;;;;;;5022385;28;11771;-71
2021/04/04 08:17:58;;;;;;;;;30.25;26.00;;;;;;;;5014362;28;11568;-74
2021/04/04 08:20:29;;;;;;;;;24.00;20.00;;;;;;;;5016920;28;11583;-72
2021/04/04 08:23:03;;;;;;;;;38.50;32.50;;;;;;;;5019681;28;11551;-70
2021/04/04 08:25:36;;;;;;;;;35.75;25.75;;;;;;;;5020353;28;11584;-73
2021/04/04 08:28:08;;;;;;;;;21.75;19.75;;;;;;;;5017943;28;11574;-71
2021/04/04 08:30:39;;;;;;;;;24.50;23.25;;;;;;;;5003118;28;11547;-68
2021/04/04 08:33:11;;;;;;;;;25.75;24.25;;;;;;;;5018901;28;11601;-72
2021/04/04 08:35:41;;;;;;;;;29.00;25.25;;;;;;;;5025356;28;11678;-70
2021/04/04 08:38:14;;;;;;;;;28.50;24.00;;;;;;;;5022190;28;11551;-70
2021/04/04 08:40:42;;;;;;;;;40.75;37.25;;;;;;;;5018760;28;11563;-71
2021/04/04 08:43:11;;;;;;;;;25.25;19.50;;;;;;;;5020239;28;11573;-69
2021/04/04 08:45:41;;;;;;;;;34.00;27.50;;;;;;;;5021168;28;11667;-70
2021/04/04 08:48:08;;;;;;;;;31.50;26.00;;;;;;;;5015934;28;11578;-70
2021/04/04 08:50:36;;;;;;;;;30.00;23.25;;;;;;;;5026624;28;11591;-70
2021/04/04 08:53:14;;;;;;;;;32.25;28.50;;;;;;;;5013131;28;11678;-71
2021/04/04 08:55:44;;;;;;;;;33.50;26.75;;;;;;;;5015265;28;11572;-73
2021/04/04 08:58:17;;;;;;;;;18.50;15.50;;;;;;;;5025234;28;12105;-74
2021/04/04 09:00:47;;;;;;;;;23.00;23.00;;;;;;;;5001158;28;11545;-73
2021/04/04 09:03:20;;;;;;;;;31.75;26.00;;;;;;;;5019987;28;11585;-73
2021/04/04 09:05:47;;;;;;;;;30.50;27.25;;;;;;;;5017712;28;11595;-72
2021/04/04 09:08:16;;;;;;;;;33.75;27.25;;;;;;;;5019202;28;12450;-72
2021/04/04 09:10:46;;;;;;;;;33.00;28.50;;;;;;;;5020283;28;11577;-74
2021/04/04 09:13:15;;;;;;;;;31.75;24.75;;;;;;;;5018975;28;11573;-72
2021/04/04 09:15:47;;;;;;;;;31.50;27.75;;;;;;;;5018859;28;11587;-74
2021/04/04 09:18:16;;;;;;;;;27.75;26.50;;;;;;;;5015781;28;11606;-73
2021/04/04 09:20:44;;;;;;;;;36.25;30.50;;;;;;;;5025759;28;11556;-74
2021/04/04 09:23:12;;;;;;;;;38.75;28.25;;;;;;;;5020026;28;11605;-74
2021/04/04 09:25:49;;;;;;;;;35.75;28.75;;;;;;;;5019254;28;11583;-73
2021/04/04 09:28:16;;;;;;;;;32.00;25.50;;;;;;;;5017560;28;11598;-73
2021/04/04 09:30:46;;;;;;;;;34.00;32.50;;;;;;;;5018923;28;11531;-73
2021/04/04 09:33:15;;;;;;;;;47.50;36.75;;;;;;;;5017664;28;11587;-72
2021/04/04 09:35:43;;;;;;;;;28.75;28.75;;;;;;;;5017077;28;11672;-74
2021/04/04 09:38:11;;;;;;;;;33.00;28.00;;;;;;;;5002461;28;11520;-76
2021/04/04 09:40:39;;;;;;;;;32.00;27.25;;;;;;;;5022874;28;12761;-71
2021/04/04 09:43:08;;;;;;;;;45.75;37.00;;;;;;;;5020172;28;11528;-74
2021/04/04 09:45:37;;;;;;;;;36.25;35.50;;;;;;;;5016242;28;12068;-73
2021/04/04 09:48:20;;;;;;;;;34.00;32.00;;;;;;;;5017952;28;11475;-71
2021/04/04 09:50:48;;;;;;;;;29.00;28.25;;;;;;;;5016925;28;11568;-73
2021/04/04 09:53:16;;;;;;;;;34.75;29.50;;;;;;;;5019235;28;11525;-73
2021/04/04 09:55:47;;;;;;;;;37.25;33.75;;;;;;;;5019286;28;11524;-74
2021/04/04 09:58:30;;;;;;;;;39.00;35.00;;;;;;;;5018974;28;11544;-74
2021/04/04 10:00:57;;;;;;;;;32.25;32.25;;;;;;;;5014644;28;11835;-76
2021/04/04 10:03:24;;;;;;;;;38.75;33.50;;;;;;;;5024301;28;11509;-74
2021/04/04 10:05:53;;;;;;;;;42.25;37.50;;;;;;;;5019604;28;11513;-75
2021/04/04 10:08:21;;;;;;;;;34.25;30.00;;;;;;;;5017497;28;12359;-74
2021/04/04 10:10:50;;;;;;;;;41.50;37.00;;;;;;;;5019519;28;11524;-75
2021/04/04 10:13:24;;;;;;;;;43.50;36.75;;;;;;;;5017673;28;12727;-75
2021/04/04 10:15:54;;;;;;;;;29.00;26.00;;;;;;;;5019986;28;12316;-75
2021/04/04 10:18:22;;;;;;;;;33.75;31.00;;;;;;;;5001943;28;11515;-75
2021/04/04 10:20:51;;;;;;;;;35.50;35.25;;;;;;;;5019876;28;11523;-75
2021/04/04 10:23:19;;;;;;;;;34.25;25.00;;;;;;;;5003009;28;11504;-75
2021/04/04 10:26:00;;;;;;;;;26.25;24.75;;;;;;;;5026178;28;11534;-76
2021/04/04 10:28:41;;;;;;;;;39.75;34.75;;;;;;;;5019878;28;11517;-74
2021/04/04 10:31:08;;;;;;;;;35.00;31.50;;;;;;;;5017743;28;11477;-74
2021/04/04 10:33:35;;;;;;;;;34.25;28.00;;;;;;;;5016946;28;11525;-74
2021/04/04 10:36:12;;;;;;;;;33.50;33.50;;;;;;;;5001091;28;11549;-73
2021/04/04 10:38:39;;;;;;;;;41.75;32.50;;;;;;;;5015056;28;11523;-76
2021/04/04 10:41:06;;;;;;;;;40.75;28.25;;;;;;;;5021209;28;11463;-75
2021/04/04 10:43:38;;;;;;;;;36.00;32.50;;;;;;;;5020176;28;11652;-77
2021/04/04 10:46:08;;;;;;;;;28.00;25.50;;;;;;;;5026763;28;11616;-75
2021/04/04 10:48:37;;;;;;;;;25.00;23.25;;;;;;;;5020056;28;11536;-74
2021/04/04 10:51:05;;;;;;;;;30.50;28.75;;;;;;;;5023860;28;11517;-74
2021/04/04 10:53:32;;;;;;;;;35.00;28.00;;;;;;;;5020680;28;11619;-74
2021/04/04 10:55:59;;;;;;;;;26.00;24.75;;;;;;;;5017911;28;11531;-74
2021/04/04 10:58:27;;;;;;;;;35.00;30.50;;;;;;;;5019480;28;11505;-75
2021/04/04 11:00:57;;;;;;;;;30.25;26.75;;;;;;;;5020031;28;11478;-74
2021/04/04 11:03:24;;;;;;;;;33.25;30.00;;;;;;;;5019580;28;11506;-74
2021/04/04 11:05:51;;;;;;;;;31.25;29.50;;;;;;;;5019487;28;12321;-75
2021/04/04 11:08:19;;;;;;;;;36.50;26.25;;;;;;;;5023354;28;11658;-75
2021/04/04 11:10:46;;;;;;;;;33.75;30.25;;;;;;;;5022483;28;11625;-75
2021/04/04 11:13:14;;;;;;;;;32.50;26.00;;;;;;;;5018468;28;11510;-75
2021/04/04 11:15:43;;;;;;;;;29.25;29.00;;;;;;;;5019336;28;11228;-74
2021/04/04 11:18:15;;;;;;;;;31.25;30.00;;;;;;;;5016021;28;11243;-75
2021/04/04 11:20:44;;;;;;;;;37.75;29.25;;;;;;;;5019772;28;12248;-74
2021/04/04 11:23:16;;;;;;;;;33.00;28.00;;;;;;;;5018060;28;11224;-73
2021/04/04 11:25:42;;;;;;;;;40.75;33.50;;;;;;;;5020360;28;11077;-73
2021/04/04 11:28:17;;;;;;;;;42.00;33.50;;;;;;;;5024240;28;11097;-73
2021/04/04 11:30:44;;;;;;;;;34.50;29.00;;;;;;;;5020331;28;10948;-72
2021/04/04 11:33:29;;;;;;;;;37.50;34.75;;;;;;;;5019274;28;11069;-73
2021/04/04 11:36:14;;;;;;;;;34.75;32.50;;;;;;;;5018859;28;11298;-74
2021/04/04 11:39:08;;;;;;;;;38.75;29.75;;;;;;;;5019079;28;11007;-74
2021/04/04 11:41:46;;;;;;;;;41.50;36.25;;;;;;;;5017919;28;11074;-73
2021/04/04 11:44:19;;;;;;;;;35.00;31.00;;;;;;;;5015257;28;11044;-72
2021/04/04 11:46:49;;;;;;;;;36.00;34.00;;;;;;;;5015914;28;11530;-71
2021/04/04 11:49:37;;;;;;;;;38.50;33.00;;;;;;;;5017572;28;10918;-72
2021/04/04 11:52:36;;;;;;;;;53.00;38.50;;;;;;;;5023396;28;10957;-71
2021/04/04 11:55:03;;;;;;;;;36.50;33.00;;;;;;;;5021381;28;11100;-72
2021/04/04 11:57:32;;;;;;;;;39.00;35.75;;;;;;;;5020069;28;10953;-71
2021/04/04 12:00:00;;;;;;;;;46.75;37.00;;;;;;;;5023026;28;10811;-73
2021/04/04 12:02:28;;;;;;;;;37.25;34.00;;;;;;;;5020721;28;11071;-72
2021/04/04 12:05:06;;;;;;;;;34.25;33.75;;;;;;;;5021886;28;10873;-73
2021/04/04 12:07:33;;;;;;;;;34.25;33.25;;;;;;;;5022014;28;11038;-73
2021/04/04 12:10:01;;;;;;;;;36.00;33.50;;;;;;;;5022624;28;10944;-72
2021/04/04 12:12:35;;;;;;;;;37.25;33.75;;;;;;;;5028490;28;11048;-72
2021/04/04 12:15:03;;;;;;;;;34.00;31.00;;;;;;;;4975942;28;10936;-72
2021/04/04 12:17:31;;;;;;;;;38.00;35.00;;;;;;;;5022052;28;10854;-73
2021/04/04 12:19:59;;;;;;;;;42.00;31.25;;;;;;;;5021501;28;10932;-73
2021/04/04 12:22:41;;;;;;;;;35.25;27.75;;;;;;;;5004195;28;10687;-74
2021/04/04 12:25:11;;;;;;;;;42.25;36.00;;;;;;;;5020973;28;10795;-74
2021/04/04 12:27:40;;;;;;;;;36.75;32.75;;;;;;;;5019617;28;10734;-73
2021/04/04 12:30:14;;;;;;;;;32.50;28.00;;;;;;;;5021256;28;10563;-73
2021/04/04 12:32:42;;;;;;;;;39.75;35.75;;;;;;;;5026413;28;10539;-71
2021/04/04 12:35:10;;;;;;;;;36.50;32.75;;;;;;;;5024742;28;10528;-73
2021/04/04 12:37:39;;;;;;;;;37.75;36.25;;;;;;;;5022558;28;10518;-74
2021/04/04 12:40:08;;;;;;;;;37.25;33.50;;;;;;;;5021155;28;11235;-73
2021/04/04 12:42:37;;;;;;;;;27.75;26.75;;;;;;;;5021342;28;10272;-70
2021/04/04 12:45:07;;;;;;;;;29.75;28.75;;;;;;;;5020037;28;10286;-71
2021/04/04 12:47:35;;;;;;;;;34.75;32.00;;;;;;;;5022338;28;10124;-72
2021/04/04 12:50:04;;;;;;;;;43.25;34.75;;;;;;;;5022744;28;10287;-72
2021/04/04 12:52:36;;;;;;;;;35.00;32.00;;;;;;;;5021889;28;10129;-71
2021/04/04 12:55:28;;;;;;;;;33.75;31.00;;;;;;;;5027671;28;10050;-72
2021/04/04 12:57:58;;;;;;;;;27.50;24.75;;;;;;;;5007704;28;9908;-71
2021/04/04 13:00:27;;;;;;;;;30.75;24.75;;;;;;;;5023523;28;10243;-76
2021/04/04 13:02:56;;;;;;;;;29.50;26.25;;;;;;;;5021581;28;10048;-74
2021/04/04 13:05:24;;;;;;;;;32.50;29.75;;;;;;;;5021383;28;10073;-72
2021/04/04 13:07:51;;;;;;;;;31.50;29.75;;;;;;;;5020880;28;9962;-73
2021/04/04 13:10:18;;;;;;;;;40.50;34.00;;;;;;;;5021112;28;9989;-74
2021/04/04 13:12:46;;;;;;;;;31.75;31.25;;;;;;;;5021818;28;10083;-76
2021/04/04 13:15:29;;;;;;;;;27.50;25.00;;;;;;;;5026223;28;9881;-73
2021/04/04 13:17:56;;;;;;;;;41.75;33.50;;;;;;;;5022877;28;9921;-74
2021/04/04 13:20:24;;;;;;;;;39.00;29.75;;;;;;;;5020890;28;10118;-73
2021/04/04 13:22:51;;;;;;;;;33.50;32.00;;;;;;;;5021724;28;9973;-71
2021/04/04 13:25:18;;;;;;;;;39.50;34.00;;;;;;;;5021907;28;9975;-72
2021/04/04 13:27:49;;;;;;;;;33.00;30.50;;;;;;;;5023380;28;10669;-72
2021/04/04 13:30:28;;;;;;;;;39.00;32.00;;;;;;;;5022721;28;9784;-73
2021/04/04 13:32:55;;;;;;;;;36.50;32.75;;;;;;;;5018056;28;9864;-73
2021/04/04 13:35:27;;;;;;;;;29.50;29.50;;;;;;;;5027558;28;10001;-72
2021/04/04 13:37:54;;;;;;;;;38.25;34.50;;;;;;;;5027099;28;9902;-71
2021/04/04 13:40:22;;;;;;;;;38.50;34.50;;;;;;;;5024314;28;10133;-72
2021/04/04 13:42:56;;;;;;;;;34.00;33.50;;;;;;;;5021825;28;10137;-72
2021/04/04 13:45:45;;;;;;;;;38.25;33.75;;;;;;;;5022476;28;10006;-72
2021/04/04 13:48:15;;;;;;;;;43.50;38.25;;;;;;;;5023018;28;9935;-72
2021/04/04 13:50:44;;;;;;;;;41.00;36.50;;;;;;;;5031012;28;9924;-72
2021/04/04 13:53:22;;;;;;;;;33.75;32.75;;;;;;;;5024435;28;10702;-72
2021/04/04 13:55:51;;;;;;;;;31.25;29.50;;;;;;;;5023203;28;9655;-71
2021/04/04 13:58:29;;;;;;;;;32.75;32.75;;;;;;;;5027329;28;9731;-72
2021/04/04 14:00:57;;;;;;;;;35.50;34.25;;;;;;;;5020072;28;10498;-72
2021/04/04 14:03:28;;;;;;;;;39.75;33.25;;;;;;;;5021076;28;10816;-72
2021/04/04 14:06:05;;;;;;;;;39.25;36.25;;;;;;;;5021955;28;10871;-72
2021/04/04 14:08:33;;;;;;;;;36.25;34.25;;;;;;;;5020229;28;10080;-72
2021/04/04 14:11:01;;;;;;;;;23.00;23.00;;;;;;;;5004591;28;9975;-71
2021/04/04 14:13:28;;;;;;;;;40.00;35.75;;;;;;;;5022008;28;9819;-72
2021/04/04 14:15:55;;;;;;;;;38.00;32.00;;;;;;;;5021285;28;10787;-72
2021/04/04 14:18:27;;;;;;;;;33.25;30.00;;;;;;;;5022248;28;9768;-72
2021/04/04 14:20:54;;;;;;;;;40.50;34.50;;;;;;;;5026961;28;9958;-73
2021/04/04 14:23:21;;;;;;;;;35.00;33.25;;;;;;;;5022016;28;9786;-73
2021/04/04 14:25:47;;;;;;;;;38.25;33.50;;;;;;;;5020968;28;9687;-72
2021/04/04 14:28:14;;;;;;;;;38.50;34.75;;;;;;;;5021802;28;9599;-72
2021/04/04 14:30:43;;;;;;;;;34.50;30.00;;;;;;;;5017824;28;9589;-72
2021/04/04 14:33:10;;;;;;;;;30.25;26.25;;;;;;;;5019470;28;9491;-72
2021/04/04 14:35:37;;;;;;;;;34.50;31.75;;;;;;;;5021585;28;9487;-72
2021/04/04 14:38:07;;;;;;;;;37.00;33.75;;;;;;;;5021107;28;9567;-72
2021/04/04 14:40:35;;;;;;;;;34.00;32.25;;;;;;;;5028161;28;9485;-72
2021/04/04 14:43:09;;;;;;;;;34.33;30.33;;;;;;;;5021871;28;9656;-73
2021/04/04 14:45:36;;;;;;;;;29.00;25.00;;;;;;;;5002113;28;9410;-76